KACV

California Redwood Coast-Humboldt County Airport

Arcata/Eureka, California, USA
KACV 192321Z 2000/2024 32015KT P6SM SKC FM200300 VRB06KT P6SM SKC FM200600 VRB04KT P6SM SCT012 FM201700 32006KT P6SM SKC FM202100 32010KT P6SM SKC
Issued Valid From Valid To
Sep-19 @ 23:21 UTC
(an hour ago)
Sep-20 @ 00:00 UTC
(43 minutes ago)
Sep-21 @ 00:00 UTC
(in 23 hours)
Sep-20 @ 00:00 to Sep-20 @ 03:00
KACV 192321Z 2000/2024 32015KT P6SM SKC
Wind Visibility Clouds
320° at 15 knots Greater than 6 miles
  • Clear skies
From Sep-20 @ 03:00 to Sep-20 @ 06:00
FM200300 VRB06KT P6SM SKC
Wind Visibility Clouds
Variable at 6 knots Greater than 6 miles
  • Clear skies
From Sep-20 @ 06:00 to Sep-20 @ 17:00
FM200600 VRB04KT P6SM SCT012
Wind Visibility Clouds
Variable at 4 knots Greater than 6 miles
  • Scattered at 1,200' AGL
From Sep-20 @ 17:00 to Sep-20 @ 21:00
FM201700 32006KT P6SM SKC
Wind Visibility Clouds
320° at 6 knots Greater than 6 miles
  • Clear skies
From Sep-20 @ 21:00 to Sep-21 @ 00:00
FM202100 32010KT P6SM SKC
Wind Visibility Clouds
320° at 10 knots Greater than 6 miles
  • Clear skies
KACV 192321Z 2000/2024 32015KT P6SM SKC FM200300 VRB06KT P6SM SKC FM200600 VRB04KT P6SM SCT012 FM201700 32006KT P6SM SKC FM202100 32010KT P6SM SKC
Issued Sep-19 @ 23:21 UTC
(an hour ago)
Valid From Sep-20 @ 00:00 UTC
(43 minutes ago)
Valid To Sep-21 @ 00:00 UTC
(in 23 hours)
Sep-20 @ 00:00 - Sep-20 @ 03:00
Wind Visibility
320° at 15 knots Greater than 6 miles
Clouds
  • Clear skies
From Sep-20 @ 03:00 - Sep-20 @ 06:00
Wind Visibility
Variable at 6 knots Greater than 6 miles
Clouds
  • Clear skies
From Sep-20 @ 06:00 - Sep-20 @ 17:00
Wind Visibility
Variable at 4 knots Greater than 6 miles
Clouds
  • Scattered at 1,200' AGL
From Sep-20 @ 17:00 - Sep-20 @ 21:00
Wind Visibility
320° at 6 knots Greater than 6 miles
Clouds
  • Clear skies
From Sep-20 @ 21:00 - Sep-21 @ 00:00
Wind Visibility
320° at 10 knots Greater than 6 miles
Clouds
  • Clear skies